• Join FlightAware (Why Join?)
  • Login
  • US Flag 
08:55PM EST


 

Airport Tracker/Info


-or-


 

Live Flight TrackerFlight Track Log ✈ N26141 ✈ 01-May-2013 ✈ KLEX - KORD

Flight Track Log - Related Links

Times and Time Zones

All times are in EDT time to prevent confusion due to time zone crossing. See the N26141 flight status page for this flight to view local times or setup timezone preferences in your user account.

Time Position Orientation Groundspeed Altitude Reporting Facility
EDT Latitude Longitude Course Direction KTS MPH feet Rate Location/Type
07:40PM 38.1403 -84.5825 325° Northwest 256 295 7,700  Level Indianapolis Center
07:41PM 37.9049 -84.6803 252° West  Level FlightAware Approximate
07:41PM 38.0994 -84.6642 238° Southwest 276 318 10,200  Level Indianapolis Center
07:42PM 37.8784 -84.7716 218° Southwest  Level FlightAware Approximate
07:42PM 38.0544 -84.7597 239° Southwest 306 352 12,200  Level Indianapolis Center
07:43PM 37.8512 -84.8605 256° West  Level FlightAware Approximate
07:43PM 37.9992 -84.8656 236° Southwest 353 406 14,200  Level Indianapolis Center
07:44PM 37.8824 -84.9801 290° West  Level FlightAware Approximate
07:44PM 37.9444 -84.9764 238° Southwest 372 428 16,200  Level Indianapolis Center
07:45PM 37.9475 -85.1294 271° West 389 448 18,000 1,560 Climbing Indianapolis Center
07:46PM 37.9919 -85.2628 293° West 403 464 19,500 1,440 Climbing Indianapolis Center
07:47PM 38.0392 -85.3961 294° West 414 476 21,000 1,380 Climbing Indianapolis Center
07:48PM 38.0925 -85.5294 297° West 421 484 22,400 1,380 Climbing Indianapolis Center
07:49PM 38.1708 -85.6461 311° West 431 496 23,900 1,440 Climbing Indianapolis Center
07:50PM 38.2633 -85.7472 319° Northwest 447 514 25,400 1,320 Climbing Indianapolis Center
07:51PM 38.3786 -85.7725 350° North 433 498 26,700 1,080 Climbing Indianapolis Center
07:52PM 38.4986 -85.7636 North 431 496 27,700 1,020 Climbing Indianapolis Center
07:53PM 38.6414 -85.7586 North 435 501 28,900 960 Climbing Indianapolis Center
07:54PM 38.7633 -85.7542 North 436 502 29,800 480 Climbing Indianapolis Center
07:55PM 38.8889 -85.7486 North 446 513 30,000 60 Climbing Indianapolis Center
07:56PM 39.0211 -85.7442 North 469 540 30,000  Level Indianapolis Center
07:57PM 39.1536 -85.7375 North 473 544 30,000  Level Indianapolis Center
07:58PM 39.2850 -85.7317 North 471 542 30,000 -420 Level Indianapolis Center
07:59PM 39.4158 -85.7264 North 470 541 29,200 -1,020 Descending Indianapolis Center
08:00PM 39.5697 -85.7192 North 474 545 28,000 -1,080 Descending Indianapolis Center
08:01PM 39.7036 -85.7131 North 479 551 27,000 -1,020 Descending Indianapolis Center
08:02PM 39.8381 -85.7075 North 482 555 26,000 -540 Descending Indianapolis Center
08:03PM 39.9714 -85.7011 North 479 551 26,000  Level Indianapolis Center
08:04PM 40.1281 -85.6939 North 481 554 26,000 -300 Level Chicago Center
08:05PM 40.2639 -85.6883 North 483 556 25,400 -840 Descending Chicago Center
08:06PM 40.3981 -85.6828 North 481 554 24,300 -1,020 Descending Chicago Center
08:07PM 40.5278 -85.7031 353° North 469 540 23,400 -780 Descending Chicago Center
08:08PM 40.6219 -85.8100 319° Northwest 452 520 22,800 -900 Descending Chicago Center
08:09PM 40.7056 -85.9519 308° West 448 516 21,600 -900 Descending Chicago Center
08:11PM 40.7794 -86.0819 307° West 444 511 21,000 -300 Descending Chicago Center
08:12PM 40.8542 -86.2117 307° West 443 510 21,000  Level Chicago Center
08:13PM 40.9283 -86.3386 308° West 438 504 21,000  Level Chicago Center
08:14PM 41.0164 -86.4956 307° West 440 506 21,000  Level Chicago Center
08:15PM 41.0908 -86.6250 307° West 440 506 21,000  Level Chicago Center
08:16PM 41.1625 -86.7492 308° West 442 509 21,000 -660 Level Chicago Center
08:17PM 41.2358 -86.8789 307° West 441 507 19,700 -1,740 Descending Chicago Center
08:18PM 41.3186 -87.0275 307° West 422 486 17,500 -2,100 Descending Chicago Center
08:19PM 41.4167 -87.2000 307° West 406 467 14,800 -2,100 Descending Chicago TRACON
08:20PM 41.4667 -87.3000 304° West 399 459 12,900 -1,980 Descending Chicago TRACON
08:21PM 41.5203 -87.3769 313° West 393 452 11,400 -1,560 Descending Chicago Center
08:22PM 41.5975 -87.4653 319° Northwest 371 427 10,000 -720 Descending Chicago Center
08:25PM 41.8394 -87.7003 324° Northwest 293 337 8,600 -660 Descending Chicago Center
08:26PM 41.9125 -87.7189 349° North 274 315 7,300 -1,080 Descending Chicago Center
08:27PM 41.9775 -87.7236 357° North 242 278 6,400 -1,320 Descending Chicago Center
08:28PM 42.0500 -87.7333 354° North 215 247 4,600 -1,620 Descending Chicago TRACON
08:29PM 42.0833 -87.7667 323° Northwest 206 237 3,100 -1,500 Descending Chicago TRACON